Terminal Aerodrome Forecast
Issued by NWS Charleston, WV

Current Version | Previous Version | Graphics & Text | Print | Product List | Glossary On
Versions: 1 2 3 4 5 6 7 8 9 10 11 12 13 14 15 16 17 18 19 20 21 22 23 24
000
FTUS41 KRLX 021126
TAFEKN
TAF
KEKN 021126Z 0212/0312 27008KT P6SM OVC035
      TEMPO 0212/0214 OVC025
     FM021400 27009KT P6SM OVC025
     FM021600 27010G16KT P6SM OVC020
     FM022300 28009KT P6SM BKN020
     FM030600 29009KT P6SM BKN025=

USA.gov is the U.S. government's official web portal to all federal, state and local government web resources and services.